sensor_id;sensor_type;location;lat;lon;timestamp;temperature;humidity
70826;SHT31;58446;41.490;22.098;2023-07-31T00:02:14;28.58;49.14
70826;SHT31;58446;41.490;22.098;2023-07-31T00:04:40;28.51;49.41
70826;SHT31;58446;41.490;22.098;2023-07-31T00:07:05;28.45;49.45
70826;SHT31;58446;41.490;22.098;2023-07-31T00:09:32;28.58;49.16
70826;SHT31;58446;41.490;22.098;2023-07-31T00:11:58;28.60;49.49
70826;SHT31;58446;41.490;22.098;2023-07-31T00:14:24;28.63;49.03
70826;SHT31;58446;41.490;22.098;2023-07-31T00:16:49;28.60;49.25
70826;SHT31;58446;41.490;22.098;2023-07-31T00:19:15;28.68;48.97
70826;SHT31;58446;41.490;22.098;2023-07-31T00:21:41;28.66;49.60
70826;SHT31;58446;41.490;22.098;2023-07-31T00:24:06;28.75;48.87
70826;SHT31;58446;41.490;22.098;2023-07-31T00:26:32;28.73;49.00
70826;SHT31;58446;41.490;22.098;2023-07-31T00:28:58;28.75;49.04
70826;SHT31;58446;41.490;22.098;2023-07-31T00:31:23;28.55;50.05
70826;SHT31;58446;41.490;22.098;2023-07-31T00:33:49;28.41;50.68
70826;SHT31;58446;41.490;22.098;2023-07-31T00:36:14;28.24;50.95
70826;SHT31;58446;41.490;22.098;2023-07-31T00:38:40;28.45;49.65
70826;SHT31;58446;41.490;22.098;2023-07-31T00:41:06;28.44;49.86
70826;SHT31;58446;41.490;22.098;2023-07-31T00:43:31;28.37;50.76
70826;SHT31;58446;41.490;22.098;2023-07-31T00:45:57;28.39;50.19
70826;SHT31;58446;41.490;22.098;2023-07-31T00:48:23;28.29;50.41
70826;SHT31;58446;41.490;22.098;2023-07-31T00:50:49;28.35;50.14
70826;SHT31;58446;41.490;22.098;2023-07-31T00:53:15;28.15;50.84
70826;SHT31;58446;41.490;22.098;2023-07-31T00:55:41;28.27;50.20
70826;SHT31;58446;41.490;22.098;2023-07-31T00:58:07;28.12;50.61
70826;SHT31;58446;41.490;22.098;2023-07-31T01:00:33;28.04;50.86
70826;SHT31;58446;41.490;22.098;2023-07-31T01:02:59;28.01;50.90
70826;SHT31;58446;41.490;22.098;2023-07-31T01:05:42;28.04;50.63
70826;SHT31;58446;41.490;22.098;2023-07-31T01:08:18;27.87;51.46
70826;SHT31;58446;41.490;22.098;2023-07-31T01:10:50;27.98;50.68
70826;SHT31;58446;41.490;22.098;2023-07-31T01:13:17;28.17;50.36
70826;SHT31;58446;41.490;22.098;2023-07-31T01:15:43;27.83;51.86
70826;SHT31;58446;41.490;22.098;2023-07-31T01:18:09;27.91;50.97
70826;SHT31;58446;41.490;22.098;2023-07-31T01:20:35;27.16;53.50
70826;SHT31;58446;41.490;22.098;2023-07-31T01:25:56;27.81;51.19
70826;SHT31;58446;41.490;22.098;2023-07-31T01:28:30;28.11;50.50
70826;SHT31;58446;41.490;22.098;2023-07-31T01:30:58;28.12;50.46
70826;SHT31;58446;41.490;22.098;2023-07-31T01:33:25;28.17;50.36
70826;SHT31;58446;41.490;22.098;2023-07-31T01:35:52;28.00;50.77
70826;SHT31;58446;41.490;22.098;2023-07-31T01:38:21;28.01;51.70
70826;SHT31;58446;41.490;22.098;2023-07-31T01:40:51;28.01;50.69
70826;SHT31;58446;41.490;22.098;2023-07-31T01:43:16;28.19;50.30
70826;SHT31;58446;41.490;22.098;2023-07-31T01:45:42;27.97;51.87
70826;SHT31;58446;41.490;22.098;2023-07-31T01:48:08;27.94;51.46
70826;SHT31;58446;41.490;22.098;2023-07-31T01:50:33;27.96;51.21
70826;SHT31;58446;41.490;22.098;2023-07-31T01:52:59;28.07;50.92
70826;SHT31;58446;41.490;22.098;2023-07-31T01:55:24;27.93;51.50
70826;SHT31;58446;41.490;22.098;2023-07-31T01:57:51;28.07;51.36
70826;SHT31;58446;41.490;22.098;2023-07-31T02:00:17;28.11;50.86
70826;SHT31;58446;41.490;22.098;2023-07-31T02:02:43;28.12;51.00
70826;SHT31;58446;41.490;22.098;2023-07-31T02:05:09;28.11;51.02
70826;SHT31;58446;41.490;22.098;2023-07-31T02:07:35;28.09;51.12
70826;SHT31;58446;41.490;22.098;2023-07-31T02:10:00;27.96;51.44
70826;SHT31;58446;41.490;22.098;2023-07-31T02:12:26;27.71;52.11
70826;SHT31;58446;41.490;22.098;2023-07-31T02:14:52;27.06;53.63
70826;SHT31;58446;41.490;22.098;2023-07-31T02:17:17;27.53;52.41
70826;SHT31;58446;41.490;22.098;2023-07-31T02:19:43;27.68;51.93
70826;SHT31;58446;41.490;22.098;2023-07-31T02:22:09;27.51;52.62
70826;SHT31;58446;41.490;22.098;2023-07-31T02:24:34;27.73;51.69
70826;SHT31;58446;41.490;22.098;2023-07-31T02:27:00;27.66;51.88
70826;SHT31;58446;41.490;22.098;2023-07-31T02:29:25;27.36;52.85
70826;SHT31;58446;41.490;22.098;2023-07-31T02:31:51;27.15;53.17
70826;SHT31;58446;41.490;22.098;2023-07-31T02:34:17;27.36;52.43
70826;SHT31;58446;41.490;22.098;2023-07-31T02:36:42;27.32;52.61
70826;SHT31;58446;41.490;22.098;2023-07-31T02:39:08;27.29;52.59
70826;SHT31;58446;41.490;22.098;2023-07-31T02:41:33;27.35;52.76
70826;SHT31;58446;41.490;22.098;2023-07-31T02:43:59;27.49;52.25
70826;SHT31;58446;41.490;22.098;2023-07-31T02:46:25;27.54;51.87
70826;SHT31;58446;41.490;22.098;2023-07-31T02:48:50;27.10;53.70
70826;SHT31;58446;41.490;22.098;2023-07-31T02:51:16;27.40;52.49
70826;SHT31;58446;41.490;22.098;2023-07-31T02:53:42;27.32;52.78
70826;SHT31;58446;41.490;22.098;2023-07-31T02:56:08;27.37;52.60
70826;SHT31;58446;41.490;22.098;2023-07-31T02:58:33;27.42;52.49
70826;SHT31;58446;41.490;22.098;2023-07-31T03:00:59;27.37;52.53
70826;SHT31;58446;41.490;22.098;2023-07-31T03:03:25;27.37;52.64
70826;SHT31;58446;41.490;22.098;2023-07-31T03:05:50;27.33;52.65
70826;SHT31;58446;41.490;22.098;2023-07-31T03:08:16;27.33;52.69
70826;SHT31;58446;41.490;22.098;2023-07-31T03:10:42;27.35;52.78
70826;SHT31;58446;41.490;22.098;2023-07-31T03:13:07;27.32;52.76
70826;SHT31;58446;41.490;22.098;2023-07-31T03:15:33;27.32;52.77
70826;SHT31;58446;41.490;22.098;2023-07-31T03:17:58;27.29;53.32
70826;SHT31;58446;41.490;22.098;2023-07-31T03:20:24;27.20;53.45
70826;SHT31;58446;41.490;22.098;2023-07-31T03:22:49;27.02;54.67
70826;SHT31;58446;41.490;22.098;2023-07-31T03:25:15;27.12;53.72
70826;SHT31;58446;41.490;22.098;2023-07-31T03:27:41;27.10;53.85
70826;SHT31;58446;41.490;22.098;2023-07-31T03:30:07;27.23;53.62
70826;SHT31;58446;41.490;22.098;2023-07-31T03:32:32;27.18;53.68
70826;SHT31;58446;41.490;22.098;2023-07-31T03:34:58;27.06;54.22
70826;SHT31;58446;41.490;22.098;2023-07-31T03:37:24;27.03;54.86
70826;SHT31;58446;41.490;22.098;2023-07-31T03:39:49;27.06;54.32
70826;SHT31;58446;41.490;22.098;2023-07-31T03:42:15;26.94;54.72
70826;SHT31;58446;41.490;22.098;2023-07-31T03:44:41;27.05;54.33
70826;SHT31;58446;41.490;22.098;2023-07-31T03:47:06;27.00;54.64
70826;SHT31;58446;41.490;22.098;2023-07-31T03:49:32;27.13;54.03
70826;SHT31;58446;41.490;22.098;2023-07-31T03:51:58;27.23;53.97
70826;SHT31;58446;41.490;22.098;2023-07-31T03:54:23;27.26;53.89
70826;SHT31;58446;41.490;22.098;2023-07-31T03:56:49;27.09;54.99
70826;SHT31;58446;41.490;22.098;2023-07-31T03:59:15;27.15;54.66
70826;SHT31;58446;41.490;22.098;2023-07-31T04:01:40;27.33;54.11
70826;SHT31;58446;41.490;22.098;2023-07-31T04:04:06;27.33;54.07
70826;SHT31;58446;41.490;22.098;2023-07-31T04:06:32;27.40;53.82
70826;SHT31;58446;41.490;22.098;2023-07-31T04:08:57;27.39;54.95
70826;SHT31;58446;41.490;22.098;2023-07-31T04:11:23;27.16;55.02
70826;SHT31;58446;41.490;22.098;2023-07-31T04:13:48;27.23;55.03
70826;SHT31;58446;41.490;22.098;2023-07-31T04:16:14;27.30;54.62
70826;SHT31;58446;41.490;22.098;2023-07-31T04:18:40;27.29;55.86
70826;SHT31;58446;41.490;22.098;2023-07-31T04:21:05;27.36;55.04
70826;SHT31;58446;41.490;22.098;2023-07-31T04:23:31;27.30;55.62
70826;SHT31;58446;41.490;22.098;2023-07-31T04:25:57;27.40;55.02
70826;SHT31;58446;41.490;22.098;2023-07-31T04:28:22;27.39;55.62
70826;SHT31;58446;41.490;22.098;2023-07-31T04:30:48;27.43;54.67
70826;SHT31;58446;41.490;22.098;2023-07-31T04:33:14;27.39;55.01
70826;SHT31;58446;41.490;22.098;2023-07-31T04:35:39;27.39;54.73
70826;SHT31;58446;41.490;22.098;2023-07-31T04:38:05;27.36;55.21
70826;SHT31;58446;41.490;22.098;2023-07-31T04:40:31;27.35;55.02
70826;SHT31;58446;41.490;22.098;2023-07-31T04:42:57;27.29;55.28
70826;SHT31;58446;41.490;22.098;2023-07-31T04:45:22;27.40;54.74
70826;SHT31;58446;41.490;22.098;2023-07-31T04:47:48;27.37;55.27
70826;SHT31;58446;41.490;22.098;2023-07-31T04:50:13;27.37;55.07
70826;SHT31;58446;41.490;22.098;2023-07-31T04:52:39;27.42;54.79
70826;SHT31;58446;41.490;22.098;2023-07-31T04:55:05;27.40;54.87
70826;SHT31;58446;41.490;22.098;2023-07-31T04:57:30;27.45;54.85
70826;SHT31;58446;41.490;22.098;2023-07-31T04:59:56;27.53;55.20
70826;SHT31;58446;41.490;22.098;2023-07-31T05:02:22;27.45;55.14
70826;SHT31;58446;41.490;22.098;2023-07-31T05:04:47;27.35;55.23
70826;SHT31;58446;41.490;22.098;2023-07-31T05:07:13;27.35;55.29
70826;SHT31;58446;41.490;22.098;2023-07-31T05:09:39;27.40;55.71
70826;SHT31;58446;41.490;22.098;2023-07-31T05:12:05;27.36;56.09
70826;SHT31;58446;41.490;22.098;2023-07-31T05:14:31;27.37;55.36
70826;SHT31;58446;41.490;22.098;2023-07-31T05:16:57;27.37;55.93
70826;SHT31;58446;41.490;22.098;2023-07-31T05:19:22;27.37;56.31
70826;SHT31;58446;41.490;22.098;2023-07-31T05:21:48;27.54;55.73
70826;SHT31;58446;41.490;22.098;2023-07-31T05:24:13;27.78;54.70
70826;SHT31;58446;41.490;22.098;2023-07-31T05:26:39;28.18;53.73
70826;SHT31;58446;41.490;22.098;2023-07-31T05:29:05;28.35;52.82
70826;SHT31;58446;41.490;22.098;2023-07-31T05:31:30;28.51;52.65
70826;SHT31;58446;41.490;22.098;2023-07-31T05:33:57;28.58;52.29
70826;SHT31;58446;41.490;22.098;2023-07-31T05:36:23;28.46;52.44
70826;SHT31;58446;41.490;22.098;2023-07-31T05:38:49;28.45;52.72
70826;SHT31;58446;41.490;22.098;2023-07-31T05:41:15;28.22;52.85
70826;SHT31;58446;41.490;22.098;2023-07-31T05:43:41;28.24;52.81
70826;SHT31;58446;41.490;22.098;2023-07-31T05:46:09;28.15;52.85
70826;SHT31;58446;41.490;22.098;2023-07-31T05:48:35;28.25;52.67
70826;SHT31;58446;41.490;22.098;2023-07-31T05:51:00;28.42;51.97
70826;SHT31;58446;41.490;22.098;2023-07-31T05:53:26;28.46;51.60
70826;SHT31;58446;41.490;22.098;2023-07-31T05:55:51;28.32;51.87
70826;SHT31;58446;41.490;22.098;2023-07-31T05:58:17;28.38;51.67
70826;SHT31;58446;41.490;22.098;2023-07-31T06:00:43;28.56;51.39
70826;SHT31;58446;41.490;22.098;2023-07-31T06:03:08;28.79;51.02
70826;SHT31;58446;41.490;22.098;2023-07-31T06:05:34;29.03;50.59
70826;SHT31;58446;41.490;22.098;2023-07-31T06:08:00;29.20;49.50
70826;SHT31;58446;41.490;22.098;2023-07-31T06:10:26;29.37;49.60
70826;SHT31;58446;41.490;22.098;2023-07-31T06:12:52;29.46;49.03
70826;SHT31;58446;41.490;22.098;2023-07-31T06:15:18;29.55;48.72
70826;SHT31;58446;41.490;22.098;2023-07-31T06:17:44;29.78;48.93
70826;SHT31;58446;41.490;22.098;2023-07-31T06:20:11;30.06;48.07
70826;SHT31;58446;41.490;22.098;2023-07-31T06:22:36;30.10;47.46
70826;SHT31;58446;41.490;22.098;2023-07-31T06:25:02;30.30;47.30
70826;SHT31;58446;41.490;22.098;2023-07-31T06:27:28;30.08;47.49
70826;SHT31;58446;41.490;22.098;2023-07-31T06:29:54;29.95;47.60
70826;SHT31;58446;41.490;22.098;2023-07-31T06:32:19;29.92;47.81
70826;SHT31;58446;41.490;22.098;2023-07-31T06:34:45;30.15;47.56
70826;SHT31;58446;41.490;22.098;2023-07-31T06:37:10;29.96;47.55
70826;SHT31;58446;41.490;22.098;2023-07-31T06:39:36;30.08;47.71
70826;SHT31;58446;41.490;22.098;2023-07-31T06:42:03;30.36;47.75
70826;SHT31;58446;41.490;22.098;2023-07-31T06:44:29;30.47;46.32
70826;SHT31;58446;41.490;22.098;2023-07-31T06:46:55;30.52;46.86
70826;SHT31;58446;41.490;22.098;2023-07-31T06:49:21;30.73;45.90
70826;SHT31;58446;41.490;22.098;2023-07-31T06:51:47;30.92;45.71
70826;SHT31;58446;41.490;22.098;2023-07-31T06:54:12;30.97;45.73
70826;SHT31;58446;41.490;22.098;2023-07-31T06:56:38;31.07;45.13
70826;SHT31;58446;41.490;22.098;2023-07-31T06:59:03;30.76;45.64
70826;SHT31;58446;41.490;22.098;2023-07-31T07:01:29;30.63;45.79
70826;SHT31;58446;41.490;22.098;2023-07-31T07:03:55;30.53;45.89
70826;SHT31;58446;41.490;22.098;2023-07-31T07:06:22;30.41;46.16
70826;SHT31;58446;41.490;22.098;2023-07-31T07:08:48;30.47;46.65
70826;SHT31;58446;41.490;22.098;2023-07-31T07:11:13;30.61;45.70
70826;SHT31;58446;41.490;22.098;2023-07-31T07:13:39;30.71;45.28
70826;SHT31;58446;41.490;22.098;2023-07-31T07:16:05;30.64;45.47
70826;SHT31;58446;41.490;22.098;2023-07-31T07:18:30;30.26;46.24
70826;SHT31;58446;41.490;22.098;2023-07-31T07:20:56;30.25;45.98
70826;SHT31;58446;41.490;22.098;2023-07-31T07:23:24;30.01;46.14
70826;SHT31;58446;41.490;22.098;2023-07-31T07:25:49;30.27;45.75
70826;SHT31;58446;41.490;22.098;2023-07-31T07:28:16;30.36;45.61
70826;SHT31;58446;41.490;22.098;2023-07-31T07:30:42;30.59;45.18
70826;SHT31;58446;41.490;22.098;2023-07-31T07:33:07;30.43;45.09
70826;SHT31;58446;41.490;22.098;2023-07-31T07:35:38;30.40;44.90
70826;SHT31;58446;41.490;22.098;2023-07-31T07:38:03;30.30;45.05
70826;SHT31;58446;41.490;22.098;2023-07-31T07:40:29;30.39;45.18
70826;SHT31;58446;41.490;22.098;2023-07-31T07:42:55;30.43;45.18
70826;SHT31;58446;41.490;22.098;2023-07-31T07:45:20;30.53;44.80
70826;SHT31;58446;41.490;22.098;2023-07-31T07:47:46;30.53;44.49
70826;SHT31;58446;41.490;22.098;2023-07-31T07:50:12;30.57;44.24
70826;SHT31;58446;41.490;22.098;2023-07-31T07:52:37;30.67;43.92
70826;SHT31;58446;41.490;22.098;2023-07-31T07:55:03;30.53;43.78
70826;SHT31;58446;41.490;22.098;2023-07-31T07:57:29;30.41;43.68
70826;SHT31;58446;41.490;22.098;2023-07-31T07:59:55;30.63;43.63
70826;SHT31;58446;41.490;22.098;2023-07-31T08:02:22;30.66;43.31
70826;SHT31;58446;41.490;22.098;2023-07-31T08:04:47;30.49;43.42
70826;SHT31;58446;41.490;22.098;2023-07-31T08:07:14;30.33;43.26
70826;SHT31;58446;41.490;22.098;2023-07-31T08:09:39;30.22;43.43
70826;SHT31;58446;41.490;22.098;2023-07-31T08:12:06;30.20;43.24
70826;SHT31;58446;41.490;22.098;2023-07-31T08:14:31;30.23;42.95
70826;SHT31;58446;41.490;22.098;2023-07-31T08:16:57;30.40;42.63
70826;SHT31;58446;41.490;22.098;2023-07-31T08:19:23;30.41;42.56
70826;SHT31;58446;41.490;22.098;2023-07-31T08:21:48;30.50;42.53
70826;SHT31;58446;41.490;22.098;2023-07-31T08:24:14;30.64;42.13
70826;SHT31;58446;41.490;22.098;2023-07-31T08:26:40;30.76;41.68
70826;SHT31;58446;41.490;22.098;2023-07-31T08:29:05;30.76;41.86
70826;SHT31;58446;41.490;22.098;2023-07-31T08:31:31;30.90;42.11
70826;SHT31;58446;41.490;22.098;2023-07-31T08:33:57;30.57;41.80
70826;SHT31;58446;41.490;22.098;2023-07-31T08:36:22;30.39;41.70
70826;SHT31;58446;41.490;22.098;2023-07-31T08:38:48;30.30;41.69
70826;SHT31;58446;41.490;22.098;2023-07-31T08:41:15;30.49;42.22
70826;SHT31;58446;41.490;22.098;2023-07-31T08:43:45;30.29;41.96
70826;SHT31;58446;41.490;22.098;2023-07-31T08:46:11;30.47;41.81
70826;SHT31;58446;41.490;22.098;2023-07-31T08:48:43;30.55;41.33
70826;SHT31;58446;41.490;22.098;2023-07-31T08:51:09;30.86;41.04
70826;SHT31;58446;41.490;22.098;2023-07-31T08:53:35;31.11;40.54
70826;SHT31;58446;41.490;22.098;2023-07-31T08:56:01;31.14;41.17
70826;SHT31;58446;41.490;22.098;2023-07-31T08:58:31;31.22;40.78
70826;SHT31;58446;41.490;22.098;2023-07-31T09:00:57;30.94;41.28
70826;SHT31;58446;41.490;22.098;2023-07-31T09:03:25;30.90;41.15
70826;SHT31;58446;41.490;22.098;2023-07-31T09:05:51;31.11;41.85
70826;SHT31;58446;41.490;22.098;2023-07-31T09:08:20;30.98;40.94
70826;SHT31;58446;41.490;22.098;2023-07-31T09:10:47;30.92;40.95
70826;SHT31;58446;41.490;22.098;2023-07-31T09:13:14;31.07;40.95
70826;SHT31;58446;41.490;22.098;2023-07-31T09:15:41;31.14;41.27
70826;SHT31;58446;41.490;22.098;2023-07-31T09:18:08;30.81;41.14
70826;SHT31;58446;41.490;22.098;2023-07-31T09:20:34;30.59;41.61
70826;SHT31;58446;41.490;22.098;2023-07-31T09:23:12;30.53;41.43
70826;SHT31;58446;41.490;22.098;2023-07-31T09:25:39;30.52;41.63
70826;SHT31;58446;41.490;22.098;2023-07-31T09:28:07;30.52;41.37
70826;SHT31;58446;41.490;22.098;2023-07-31T09:30:50;30.76;41.22
70826;SHT31;58446;41.490;22.098;2023-07-31T09:33:18;30.98;40.51
70826;SHT31;58446;41.490;22.098;2023-07-31T09:35:44;31.14;39.93
70826;SHT31;58446;41.490;22.098;2023-07-31T09:38:14;31.31;39.94
70826;SHT31;58446;41.490;22.098;2023-07-31T09:40:42;31.38;39.36
70826;SHT31;58446;41.490;22.098;2023-07-31T09:43:12;31.48;38.62
70826;SHT31;58446;41.490;22.098;2023-07-31T09:45:40;31.21;38.77
70826;SHT31;58446;41.490;22.098;2023-07-31T09:48:10;30.86;38.86
70826;SHT31;58446;41.490;22.098;2023-07-31T09:50:38;30.81;39.51
70826;SHT31;58446;41.490;22.098;2023-07-31T09:53:05;31.01;39.47
70826;SHT31;58446;41.490;22.098;2023-07-31T09:55:32;31.04;39.41
70826;SHT31;58446;41.490;22.098;2023-07-31T09:57:58;30.81;39.87
70826;SHT31;58446;41.490;22.098;2023-07-31T10:00:24;30.76;40.03
70826;SHT31;58446;41.490;22.098;2023-07-31T10:02:54;30.98;39.52
70826;SHT31;58446;41.490;22.098;2023-07-31T10:05:21;31.36;39.40
70826;SHT31;58446;41.490;22.098;2023-07-31T10:08:07;31.27;39.16
70826;SHT31;58446;41.490;22.098;2023-07-31T10:10:36;31.18;39.73
70826;SHT31;58446;41.490;22.098;2023-07-31T10:13:01;31.14;39.36
70826;SHT31;58446;41.490;22.098;2023-07-31T10:15:28;30.99;39.66
70826;SHT31;58446;41.490;22.098;2023-07-31T10:17:56;31.04;39.42
70826;SHT31;58446;41.490;22.098;2023-07-31T10:20:22;31.08;39.54
70826;SHT31;58446;41.490;22.098;2023-07-31T10:22:48;31.17;39.08
70826;SHT31;58446;41.490;22.098;2023-07-31T10:25:15;31.24;38.76
70826;SHT31;58446;41.490;22.098;2023-07-31T10:27:42;31.48;39.27
70826;SHT31;58446;41.490;22.098;2023-07-31T10:30:11;31.72;37.93
70826;SHT31;58446;41.490;22.098;2023-07-31T10:32:40;31.48;38.55
70826;SHT31;58446;41.490;22.098;2023-07-31T10:35:08;31.63;39.63
70826;SHT31;58446;41.490;22.098;2023-07-31T10:37:37;31.55;38.95
70826;SHT31;58446;41.490;22.098;2023-07-31T10:40:10;31.27;38.99
70826;SHT31;58446;41.490;22.098;2023-07-31T10:42:45;31.61;38.46
70826;SHT31;58446;41.490;22.098;2023-07-31T10:45:13;31.52;39.04
70826;SHT31;58446;41.490;22.098;2023-07-31T10:47:43;31.38;38.26
70826;SHT31;58446;41.490;22.098;2023-07-31T10:50:20;31.73;38.07
70826;SHT31;58446;41.490;22.098;2023-07-31T10:52:57;31.82;37.21
70826;SHT31;58446;41.490;22.098;2023-07-31T10:55:32;31.67;37.31
70826;SHT31;58446;41.490;22.098;2023-07-31T10:58:11;31.72;37.48
70826;SHT31;58446;41.490;22.098;2023-07-31T11:00:39;31.90;37.33
70826;SHT31;58446;41.490;22.098;2023-07-31T11:03:16;31.87;37.09
70826;SHT31;58446;41.490;22.098;2023-07-31T11:08:19;31.93;36.54
70826;SHT31;58446;41.490;22.098;2023-07-31T11:10:46;31.55;36.91
70826;SHT31;58446;41.490;22.098;2023-07-31T11:13:13;31.53;36.57
70826;SHT31;58446;41.490;22.098;2023-07-31T11:15:39;31.69;36.04
70826;SHT31;58446;41.490;22.098;2023-07-31T11:18:04;31.82;35.80
70826;SHT31;58446;41.490;22.098;2023-07-31T11:20:34;31.86;36.09
70826;SHT31;58446;41.490;22.098;2023-07-31T11:23:05;31.75;36.03
70826;SHT31;58446;41.490;22.098;2023-07-31T11:25:32;31.67;35.83
70826;SHT31;58446;41.490;22.098;2023-07-31T11:28:10;31.79;36.29
70826;SHT31;58446;41.490;22.098;2023-07-31T11:30:36;31.85;36.00
70826;SHT31;58446;41.490;22.098;2023-07-31T11:33:04;31.83;36.00
70826;SHT31;58446;41.490;22.098;2023-07-31T11:35:49;31.89;36.00
70826;SHT31;58446;41.490;22.098;2023-07-31T11:38:21;32.07;35.95
70826;SHT31;58446;41.490;22.098;2023-07-31T11:40:51;32.14;35.63
70826;SHT31;58446;41.490;22.098;2023-07-31T11:43:18;32.20;35.94
70826;SHT31;58446;41.490;22.098;2023-07-31T11:45:48;32.43;35.47
70826;SHT31;58446;41.490;22.098;2023-07-31T11:48:39;32.36;35.60
70826;SHT31;58446;41.490;22.098;2023-07-31T11:51:08;32.34;35.90
70826;SHT31;58446;41.490;22.098;2023-07-31T11:53:45;32.51;35.89
70826;SHT31;58446;41.490;22.098;2023-07-31T11:56:18;32.31;35.90
70826;SHT31;58446;41.490;22.098;2023-07-31T11:58:46;32.10;35.95
70826;SHT31;58446;41.490;22.098;2023-07-31T12:01:14;31.92;35.68
70826;SHT31;58446;41.490;22.098;2023-07-31T12:03:40;31.93;35.27
70826;SHT31;58446;41.490;22.098;2023-07-31T12:06:08;32.00;35.91
70826;SHT31;58446;41.490;22.098;2023-07-31T12:08:33;32.24;34.88
70826;SHT31;58446;41.490;22.098;2023-07-31T12:11:05;32.38;34.87
70826;SHT31;58446;41.490;22.098;2023-07-31T12:13:32;32.50;35.12
70826;SHT31;58446;41.490;22.098;2023-07-31T12:16:01;32.44;34.97
70826;SHT31;58446;41.490;22.098;2023-07-31T12:18:30;32.40;35.06
70826;SHT31;58446;41.490;22.098;2023-07-31T12:21:00;32.54;34.57
70826;SHT31;58446;41.490;22.098;2023-07-31T12:23:28;32.47;34.64
70826;SHT31;58446;41.490;22.098;2023-07-31T12:26:11;32.26;35.40
70826;SHT31;58446;41.490;22.098;2023-07-31T12:28:48;32.13;34.72
70826;SHT31;58446;41.490;22.098;2023-07-31T12:31:19;31.97;35.66
70826;SHT31;58446;41.490;22.098;2023-07-31T12:33:47;31.94;34.93
70826;SHT31;58446;41.490;22.098;2023-07-31T12:36:15;32.03;34.87
70826;SHT31;58446;41.490;22.098;2023-07-31T12:38:42;32.27;34.22
70826;SHT31;58446;41.490;22.098;2023-07-31T12:41:08;32.45;34.16
70826;SHT31;58446;41.490;22.098;2023-07-31T12:43:34;32.53;34.17
70826;SHT31;58446;41.490;22.098;2023-07-31T12:46:00;32.33;34.18
70826;SHT31;58446;41.490;22.098;2023-07-31T12:48:26;32.12;34.52
70826;SHT31;58446;41.490;22.098;2023-07-31T12:50:51;32.03;34.83
70826;SHT31;58446;41.490;22.098;2023-07-31T12:53:17;32.03;34.62
70826;SHT31;58446;41.490;22.098;2023-07-31T12:55:43;32.10;34.30
70826;SHT31;58446;41.490;22.098;2023-07-31T12:58:09;32.03;34.83
70826;SHT31;58446;41.490;22.098;2023-07-31T13:00:34;32.34;34.35
70826;SHT31;58446;41.490;22.098;2023-07-31T13:03:00;32.34;34.70
70826;SHT31;58446;41.490;22.098;2023-07-31T13:05:27;32.50;34.78
70826;SHT31;58446;41.490;22.098;2023-07-31T13:07:53;32.50;34.43
70826;SHT31;58446;41.490;22.098;2023-07-31T13:10:19;32.38;34.66
70826;SHT31;58446;41.490;22.098;2023-07-31T13:12:45;32.34;35.22
70826;SHT31;58446;41.490;22.098;2023-07-31T13:15:11;32.36;35.02
70826;SHT31;58446;41.490;22.098;2023-07-31T13:17:37;32.54;34.82
70826;SHT31;58446;41.490;22.098;2023-07-31T13:20:03;32.67;34.42
70826;SHT31;58446;41.490;22.098;2023-07-31T13:22:29;32.72;34.25
70826;SHT31;58446;41.490;22.098;2023-07-31T13:24:55;32.78;34.61
70826;SHT31;58446;41.490;22.098;2023-07-31T13:27:21;32.77;34.41
70826;SHT31;58446;41.490;22.098;2023-07-31T13:29:53;32.57;34.50
70826;SHT31;58446;41.490;22.098;2023-07-31T13:32:19;32.75;34.16
70826;SHT31;58446;41.490;22.098;2023-07-31T13:34:47;32.95;33.97
70826;SHT31;58446;41.490;22.098;2023-07-31T13:37:13;32.72;34.32
70826;SHT31;58446;41.490;22.098;2023-07-31T13:39:39;32.61;34.27
70826;SHT31;58446;41.490;22.098;2023-07-31T13:42:05;32.54;34.60
70826;SHT31;58446;41.490;22.098;2023-07-31T13:44:40;32.36;34.75
70826;SHT31;58446;41.490;22.098;2023-07-31T13:47:07;32.26;34.75
70826;SHT31;58446;41.490;22.098;2023-07-31T13:49:33;32.41;34.62
70826;SHT31;58446;41.490;22.098;2023-07-31T13:51:59;32.43;34.46
70826;SHT31;58446;41.490;22.098;2023-07-31T13:54:25;32.53;34.20
70826;SHT31;58446;41.490;22.098;2023-07-31T13:56:53;32.64;34.35
70826;SHT31;58446;41.490;22.098;2023-07-31T13:59:20;32.68;34.68
70826;SHT31;58446;41.490;22.098;2023-07-31T14:01:46;32.79;34.10
70826;SHT31;58446;41.490;22.098;2023-07-31T14:04:12;32.67;34.09
70826;SHT31;58446;41.490;22.098;2023-07-31T14:06:37;32.58;34.38
70826;SHT31;58446;41.490;22.098;2023-07-31T14:09:03;32.53;34.64
70826;SHT31;58446;41.490;22.098;2023-07-31T14:11:30;32.54;34.10
70826;SHT31;58446;41.490;22.098;2023-07-31T14:13:56;32.64;34.40
70826;SHT31;58446;41.490;22.098;2023-07-31T14:16:22;32.67;34.59
70826;SHT31;58446;41.490;22.098;2023-07-31T14:18:48;32.67;34.47
70826;SHT31;58446;41.490;22.098;2023-07-31T14:21:14;32.45;34.94
70826;SHT31;58446;41.490;22.098;2023-07-31T14:23:40;32.55;34.82
70826;SHT31;58446;41.490;22.098;2023-07-31T14:26:06;32.47;35.05
70826;SHT31;58446;41.490;22.098;2023-07-31T14:28:32;32.40;34.67
70826;SHT31;58446;41.490;22.098;2023-07-31T14:30:58;32.34;34.51
70826;SHT31;58446;41.490;22.098;2023-07-31T14:33:24;32.27;34.70
70826;SHT31;58446;41.490;22.098;2023-07-31T14:35:49;32.28;34.63
70826;SHT31;58446;41.490;22.098;2023-07-31T14:38:15;32.27;35.05
70826;SHT31;58446;41.490;22.098;2023-07-31T14:40:41;32.23;35.42
70826;SHT31;58446;41.490;22.098;2023-07-31T14:43:07;32.14;35.55
70826;SHT31;58446;41.490;22.098;2023-07-31T14:45:33;32.09;35.51
70826;SHT31;58446;41.490;22.098;2023-07-31T14:47:58;32.09;35.52
70826;SHT31;58446;41.490;22.098;2023-07-31T14:50:25;31.98;35.66
70826;SHT31;58446;41.490;22.098;2023-07-31T14:52:51;31.96;36.19
70826;SHT31;58446;41.490;22.098;2023-07-31T14:55:18;31.94;36.06
70826;SHT31;58446;41.490;22.098;2023-07-31T14:57:44;31.97;35.83
70826;SHT31;58446;41.490;22.098;2023-07-31T15:00:10;31.96;35.73
70826;SHT31;58446;41.490;22.098;2023-07-31T15:02:39;31.83;35.87
70826;SHT31;58446;41.490;22.098;2023-07-31T15:05:05;31.89;35.77
70826;SHT31;58446;41.490;22.098;2023-07-31T15:07:32;31.82;35.55
70826;SHT31;58446;41.490;22.098;2023-07-31T15:09:57;31.92;35.61
70826;SHT31;58446;41.490;22.098;2023-07-31T15:12:23;31.90;35.40
70826;SHT31;58446;41.490;22.098;2023-07-31T15:14:49;31.92;35.50
70826;SHT31;58446;41.490;22.098;2023-07-31T15:17:15;31.90;35.57
70826;SHT31;58446;41.490;22.098;2023-07-31T15:19:41;31.79;35.74